Time;durP1;ratioP1;P1;durP2;ratioP2;P2;SDS_P1;SDS_P2;PMS_P1;PMS_P2;Temp;Humidity;BMP_temperature;BMP_pressure;BME280_temperature;BME280_humidity;BME280_pressure;Samples;Min_cycle;Max_cycle;Signal;HPM_P1;HPM_P2
2021/03/16 00:01:54;;;;;;;0.90;0.90;;;;;;;-0.76;89.99;91706.02;1833269;77;21096;-75
2021/03/16 00:04:22;;;;;;;0.80;0.72;;;;;;;-0.76;90.00;91700.68;1844506;77;21044;-75
2021/03/16 00:06:53;;;;;;;1.27;1.17;;;;;;;-0.75;90.00;91693.66;1842854;77;21080;-74
2021/03/16 00:09:21;;;;;;;1.40;1.10;;;;;;;-0.74;90.12;91697.09;1843222;77;21487;-75
2021/03/16 00:11:49;;;;;;;0.93;0.93;;;;;;;-0.75;89.97;91699.57;1807536;79;21051;-74
2021/03/16 00:14:17;;;;;;;0.90;0.90;;;;;;;-0.78;90.02;91697.05;1807393;79;21141;-74
2021/03/16 00:16:45;;;;;;;0.90;0.90;;;;;;;-0.81;89.83;91696.45;1830108;76;21140;-75
2021/03/16 00:19:14;;;;;;;1.00;1.00;;;;;;;-0.80;89.80;91699.88;1844481;77;21348;-75
2021/03/16 00:21:42;;;;;;;1.17;1.07;;;;;;;-0.79;89.84;91699.53;1844541;76;21253;-75
2021/03/16 00:24:10;;;;;;;0.90;0.90;;;;;;;-0.76;89.54;91688.67;1844641;77;21037;-74
2021/03/16 00:26:39;;;;;;;1.20;1.20;;;;;;;-0.75;89.73;91694.99;1808929;77;21070;-75
2021/03/16 00:29:08;;;;;;;1.40;1.27;;;;;;;-0.75;89.56;91696.33;1835047;76;21033;-74
2021/03/16 00:31:36;;;;;;;1.45;1.35;;;;;;;-0.76;89.58;91696.11;1844584;77;21563;-75
2021/03/16 00:34:04;;;;;;;1.20;1.20;;;;;;;-0.73;89.66;91705.29;1844395;76;21128;-76
2021/03/16 00:36:33;;;;;;;1.47;1.37;;;;;;;-0.71;89.67;91696.91;1844578;77;21127;-75
2021/03/16 00:39:01;;;;;;;1.10;1.10;;;;;;;-0.70;89.50;91685.87;1819232;77;21472;-76
2021/03/16 00:41:29;;;;;;;1.30;1.20;;;;;;;-0.73;89.33;91691.95;1812313;77;21058;-76
2021/03/16 00:43:57;;;;;;;1.60;1.50;;;;;;;-0.76;89.31;91695.34;1831209;77;21151;-74
2021/03/16 00:46:25;;;;;;;1.50;1.40;;;;;;;-0.78;89.09;91694.38;1829168;77;21154;-75
2021/03/16 00:48:53;;;;;;;1.50;1.40;;;;;;;-0.79;89.19;91687.52;1782012;79;21093;-75
2021/03/16 00:51:22;;;;;;;2.10;1.70;;;;;;;-0.77;89.36;91697.25;1805355;79;21492;-75
2021/03/16 00:53:50;;;;;;;1.60;1.50;;;;;;;-0.76;89.43;91682.00;1807386;79;21169;-75
2021/03/16 00:56:18;;;;;;;1.60;1.50;;;;;;;-0.79;89.26;91674.72;1807484;79;21244;-75
2021/03/16 00:58:46;;;;;;;1.97;1.87;;;;;;;-0.80;89.01;91676.63;1827173;77;21124;-76
2021/03/16 01:01:14;;;;;;;1.70;1.60;;;;;;;-0.83;89.00;91672.04;1833244;77;21135;-75
2021/03/16 01:03:42;;;;;;;1.70;1.60;;;;;;;-0.82;89.19;91681.58;1810427;77;21046;-76
2021/03/16 01:06:10;;;;;;;1.60;1.50;;;;;;;-0.79;89.26;91679.52;1844787;77;21455;-76
2021/03/16 01:08:38;;;;;;;1.70;1.60;;;;;;;-0.79;89.09;91670.71;1844350;77;21404;-75
2021/03/16 01:11:07;;;;;;;1.87;1.70;;;;;;;-0.79;89.07;91674.72;1820470;77;21635;-75
2021/03/16 01:13:35;;;;;;;2.23;2.13;;;;;;;-0.82;89.05;91661.56;1823035;77;21562;-75
2021/03/16 01:16:03;;;;;;;1.90;1.70;;;;;;;-0.81;89.31;91656.41;1844533;77;21056;-76
2021/03/16 01:18:32;;;;;;;2.52;2.33;;;;;;;-0.82;89.32;91648.22;1844669;77;21041;-76
2021/03/16 01:21:00;;;;;;;2.27;2.07;;;;;;;-0.83;89.33;91641.34;1842196;77;21230;-77
2021/03/16 01:23:28;;;;;;;2.80;2.60;;;;;;;-0.83;89.23;91635.22;1817781;77;21145;-75
2021/03/16 01:25:58;;;;;;;2.15;2.02;;;;;;;-0.81;89.35;91635.63;1827206;76;21013;-75
2021/03/16 01:28:26;;;;;;;2.60;2.17;;;;;;;-0.83;88.97;91644.02;1832086;77;21118;-76
2021/03/16 01:30:54;;;;;;;2.47;2.27;;;;;;;-0.84;88.81;91645.70;1811415;77;21102;-75
2021/03/16 01:33:23;;;;;;;2.07;1.90;;;;;;;-0.84;88.91;91641.70;1844552;77;21195;-74
2021/03/16 01:35:51;;;;;;;2.97;2.77;;;;;;;-0.83;89.02;91644.02;1844411;77;21052;-75
2021/03/16 01:38:19;;;;;;;3.62;3.12;;;;;;;-0.83;88.96;91642.69;1844562;77;21072;-75
2021/03/16 01:40:47;;;;;;;2.15;2.00;;;;;;;-0.83;88.93;91649.90;1844424;77;21152;-75
2021/03/16 01:43:18;;;;;;;2.55;2.35;;;;;;;-0.83;88.21;91644.02;1844553;77;21072;-76
2021/03/16 01:45:47;;;;;;;2.65;2.45;;;;;;;-0.85;88.25;91642.27;1844440;77;21124;-74
2021/03/16 01:48:22;;;;;;;2.42;2.22;;;;;;;-0.88;87.82;91644.91;1844664;77;21487;-74
2021/03/16 01:50:50;;;;;;;3.65;2.50;;;;;;;-0.94;88.03;91653.82;1811974;77;21058;-74
2021/03/16 01:53:18;;;;;;;2.57;2.00;;;;;;;-0.95;88.58;91653.59;1831279;77;21495;-75
2021/03/16 01:55:47;;;;;;;2.60;2.40;;;;;;;-0.98;88.75;91650.32;1828973;77;21090;-75
2021/03/16 01:58:14;;;;;;;2.50;2.30;;;;;;;-0.99;88.79;91656.80;1814561;77;21217;-77
2021/03/16 02:01:02;;;;;;;2.47;2.27;;;;;;;-1.01;88.61;91657.74;1840804;77;21067;-73
2021/03/16 02:03:54;;;;;;;1.82;1.72;;;;;;;-1.06;88.65;91650.81;1807832;77;21505;-75
2021/03/16 02:06:49;;;;;;;2.37;2.17;;;;;;;-1.07;89.07;91655.19;1844653;77;21099;-74
2021/03/16 02:09:50;;;;;;;2.87;2.58;;;;;;;-1.09;89.43;91652.11;1848634;77;21096;-77
2021/03/16 02:12:51;;;;;;;2.10;1.90;;;;;;;-1.11;89.43;91650.39;1811465;79;21194;-76
2021/03/16 02:15:39;;;;;;;2.13;2.00;;;;;;;-1.11;89.27;91643.15;1811316;79;21115;-74
2021/03/16 02:18:21;;;;;;;2.60;1.87;;;;;;;-1.11;89.48;91643.72;1799345;79;21061;-74
2021/03/16 02:21:21;;;;;;;2.37;1.90;;;;;;;-1.11;89.17;91641.81;1785565;79;21129;-75
2021/03/16 02:24:19;;;;;;;2.20;2.10;;;;;;;-1.14;88.71;91645.78;1828740;78;21049;-73
2021/03/16 02:27:18;;;;;;;2.17;2.07;;;;;;;-1.17;88.90;91648.59;1832977;78;21346;-74
2021/03/16 02:30:05;;;;;;;2.10;2.00;;;;;;;-1.17;89.33;91659.84;1834818;76;21129;-75
2021/03/16 02:32:53;;;;;;;1.80;1.70;;;;;;;-1.20;89.49;91653.89;1785033;80;21551;-75
2021/03/16 02:35:40;;;;;;;2.03;1.67;;;;;;;-1.22;89.40;91655.60;1837597;77;21044;-75
2021/03/16 02:38:31;;;;;;;1.53;1.43;;;;;;;-1.23;89.54;91660.17;1799824;79;21093;-72
2021/03/16 02:41:18;;;;;;;1.97;1.87;;;;;;;-1.22;89.37;91655.03;1856927;77;21095;-74
2021/03/16 02:44:05;;;;;;;1.77;1.67;;;;;;;-1.24;89.39;91656.55;1833222;77;21130;-74
2021/03/16 02:46:52;;;;;;;1.27;1.23;;;;;;;-1.23;89.73;91664.74;1821670;78;21038;-72
2021/03/16 02:49:42;;;;;;;1.70;1.60;;;;;;;-1.22;89.79;91660.94;1837587;78;21526;-74
2021/03/16 02:52:28;;;;;;;1.57;1.47;;;;;;;-1.22;90.05;91667.03;1839464;76;21191;-75
2021/03/16 02:55:15;;;;;;;3.40;1.60;;;;;;;-1.19;90.00;91662.12;1837005;78;21626;-75
2021/03/16 02:58:01;;;;;;;1.30;1.30;;;;;;;-1.18;89.76;91655.64;1806975;79;21071;-75
2021/03/16 03:00:34;;;;;;;1.33;1.23;;;;;;;-1.22;88.82;91657.70;1744342;80;21075;-74
2021/03/16 03:03:22;;;;;;;1.30;1.20;;;;;;;-1.25;89.17;91665.09;1779850;79;21058;-76
2021/03/16 03:06:09;;;;;;;1.73;1.63;;;;;;;-1.25;89.67;91665.66;1832940;76;21032;-75
2021/03/16 03:08:55;;;;;;;1.50;1.30;;;;;;;-1.25;89.74;91665.66;1835642;77;21606;-75
2021/03/16 03:11:42;;;;;;;1.10;1.10;;;;;;;-1.23;90.21;91667.41;1834123;78;21481;-76
2021/03/16 03:14:28;;;;;;;1.00;1.00;;;;;;;-1.22;89.88;91671.03;1834043;78;21156;-74
2021/03/16 03:17:15;;;;;;;1.07;1.07;;;;;;;-1.24;89.39;91661.31;1834948;77;21547;-74
2021/03/16 03:20:05;;;;;;;1.63;1.30;;;;;;;-1.25;89.27;91666.42;1835164;78;21050;-74
2021/03/16 03:23:04;;;;;;;1.27;1.17;;;;;;;-1.24;89.52;91665.31;1835025;77;21178;-74
2021/03/16 03:26:03;;;;;;;1.07;1.03;;;;;;;-1.23;89.85;91659.41;1834976;77;21084;-75
2021/03/16 03:28:51;;;;;;;1.00;0.93;;;;;;;-1.22;89.85;91656.36;1828305;78;21100;-76
2021/03/16 03:31:42;;;;;;;1.90;1.67;;;;;;;-1.17;89.95;91662.50;1834912;78;21414;-77
2021/03/16 03:34:31;;;;;;;0.78;0.78;;;;;;;-1.14;90.09;91660.45;1835042;78;21033;-73
2021/03/16 03:37:21;;;;;;;1.10;1.10;;;;;;;-1.12;89.85;91664.30;1835153;77;21428;-75
2021/03/16 03:40:08;;;;;;;1.47;1.37;;;;;;;-1.11;89.80;91666.39;1783844;79;21134;-75
2021/03/16 03:42:48;;;;;;;1.63;1.30;;;;;;;-1.12;89.91;91664.30;1809486;79;21472;-75
2021/03/16 03:45:34;;;;;;;1.10;1.07;;;;;;;-1.13;90.07;91668.64;1836067;78;21574;-75
2021/03/16 03:48:21;;;;;;;0.80;0.80;;;;;;;-1.16;89.98;91672.83;1839023;78;21033;-74
2021/03/16 03:51:07;;;;;;;1.20;1.07;;;;;;;-1.16;89.50;91663.49;1807163;78;21121;-76
2021/03/16 03:53:54;;;;;;;1.10;1.00;;;;;;;-1.15;89.75;91664.25;1793604;79;21169;-77
2021/03/16 03:56:40;;;;;;;0.90;0.90;;;;;;;-1.12;89.79;91669.63;1793305;80;21467;-75
2021/03/16 03:59:27;;;;;;;0.90;0.90;;;;;;;-1.11;89.78;91669.82;1815532;77;21116;-75
2021/03/16 04:02:13;;;;;;;1.30;1.20;;;;;;;-1.15;89.00;91668.25;1856661;77;21159;-76
2021/03/16 04:05:00;;;;;;;1.20;1.10;;;;;;;-1.18;89.62;91667.64;1793812;78;21655;-77
2021/03/16 04:07:47;;;;;;;1.30;1.20;;;;;;;-1.18;89.96;91670.31;1826364;78;21134;-73
2021/03/16 04:10:36;;;;;;;1.42;1.32;;;;;;;-1.17;90.09;91663.84;1814436;78;21587;-72
2021/03/16 04:13:23;;;;;;;1.40;1.30;;;;;;;-1.19;90.25;91656.78;1829838;78;21060;-75
2021/03/16 04:16:02;;;;;;;1.23;0.87;;;;;;;-1.23;90.39;91668.17;1828620;78;21067;-73
2021/03/16 04:18:49;;;;;;;0.80;0.80;;;;;;;-1.23;90.75;91659.41;1815175;78;21066;-74
2021/03/16 04:21:36;;;;;;;0.87;0.87;;;;;;;-1.22;90.67;91662.27;1853395;77;21123;-76
2021/03/16 04:24:22;;;;;;;0.87;0.87;;;;;;;-1.19;90.26;91671.45;1831114;76;21479;-74
2021/03/16 04:27:09;;;;;;;1.07;0.97;;;;;;;-1.18;90.10;91671.64;1852093;76;21475;-73
2021/03/16 04:29:55;;;;;;;1.00;0.87;;;;;;;-1.14;90.17;91678.55;1847532;75;21115;-72
2021/03/16 04:32:42;;;;;;;1.00;1.00;;;;;;;-1.11;90.14;91677.83;1838866;77;21423;-75
2021/03/16 04:35:28;;;;;;;4.13;1.50;;;;;;;-1.10;90.20;91682.59;1829134;78;21044;-73
2021/03/16 04:38:15;;;;;;;4.50;4.10;;;;;;;-1.13;90.16;91688.65;1833796;75;21116;-73
2021/03/16 04:41:02;;;;;;;2.55;2.35;;;;;;;-1.14;90.54;91687.88;1845033;77;21374;-74
2021/03/16 04:43:49;;;;;;;2.60;2.40;;;;;;;-1.15;90.61;91690.36;1829607;78;21487;-74
2021/03/16 04:46:35;;;;;;;1.23;0.83;;;;;;;-1.16;90.41;91690.73;1829718;78;21189;-75
2021/03/16 04:49:10;;;;;;;0.50;0.50;;;;;;;-1.23;89.34;91693.51;1828632;78;21506;-72
2021/03/16 04:51:57;;;;;;;0.53;0.53;;;;;;;-1.19;89.38;91692.79;1845666;75;21089;-76
2021/03/16 04:54:44;;;;;;;0.70;0.70;;;;;;;-1.16;89.48;91698.73;1832780;77;21127;-72
2021/03/16 04:57:30;;;;;;;0.70;0.70;;;;;;;-1.19;88.48;91699.45;1842547;77;21083;-73
2021/03/16 05:00:19;;;;;;;0.47;0.47;;;;;;;-1.19;88.91;91710.13;1836313;77;21566;-73
2021/03/16 05:03:05;;;;;;;0.67;0.67;;;;;;;-1.15;89.00;91702.93;1839088;77;21099;-73
2021/03/16 05:05:52;;;;;;;0.37;0.37;;;;;;;-1.10;88.82;91702.59;1847422;77;21076;-73
2021/03/16 05:08:39;;;;;;;0.57;0.50;;;;;;;-1.13;88.16;91693.45;1841322;77;21053;-70
2021/03/16 05:11:25;;;;;;;0.40;0.40;;;;;;;-1.12;88.35;91696.88;1829597;77;21542;-74
2021/03/16 05:14:12;;;;;;;0.60;0.60;;;;;;;-1.11;88.26;91701.84;1832052;77;21784;-74
2021/03/16 05:16:58;;;;;;;0.80;0.80;;;;;;;-1.08;88.52;91701.11;1846731;77;21108;-72
2021/03/16 05:19:45;;;;;;;0.50;0.50;;;;;;;-1.07;88.62;91697.88;1829671;78;21109;-72
2021/03/16 05:22:20;;;;;;;0.40;0.40;;;;;;;-1.09;88.73;91705.46;1828489;78;21072;-72
2021/03/16 05:25:08;;;;;;;0.63;0.63;;;;;;;-1.07;88.76;91707.98;1841633;76;21100;-73
2021/03/16 05:27:54;;;;;;;0.40;0.40;;;;;;;-1.04;88.83;91710.49;1814172;77;22041;-75
2021/03/16 05:30:41;;;;;;;0.70;0.50;;;;;;;-1.02;88.92;91718.88;1834071;77;21076;-72
2021/03/16 05:33:27;;;;;;;0.60;0.60;;;;;;;-1.00;88.73;91717.40;1844576;77;21103;-73
2021/03/16 05:36:14;;;;;;;0.25;0.25;;;;;;;-1.02;88.42;91714.88;1824842;77;21162;-72
2021/03/16 05:39:01;;;;;;;0.30;0.30;;;;;;;-1.01;88.67;91715.11;1823311;77;21041;-71
2021/03/16 05:41:47;;;;;;;0.40;0.40;;;;;;;-0.96;88.73;91718.02;1844342;77;21629;-75
2021/03/16 05:44:34;;;;;;;0.50;0.50;;;;;;;-0.93;88.62;91718.63;1835969;77;21656;-72
2021/03/16 05:47:20;;;;;;;0.47;0.47;;;;;;;-0.91;88.73;91717.10;1786850;79;21497;-73
2021/03/16 05:50:08;;;;;;;0.30;0.20;;;;;;;-0.90;88.97;91711.20;1807355;79;21121;-72
2021/03/16 05:52:55;;;;;;;0.80;0.80;;;;;;;-0.86;89.17;91706.69;1807486;79;21185;-73
2021/03/16 05:55:28;;;;;;;0.80;0.68;;;;;;;-0.86;89.30;91706.13;1844750;77;21175;-73
2021/03/16 05:58:15;;;;;;;1.20;1.10;;;;;;;-0.83;89.40;91706.73;1844455;77;21116;-74
2021/03/16 06:01:01;;;;;;;1.05;0.95;;;;;;;-0.82;89.55;91701.59;1844608;76;21487;-75
2021/03/16 06:03:50;;;;;;;0.98;0.72;;;;;;;-0.79;89.63;91711.54;1844380;77;21049;-74
2021/03/16 06:06:38;;;;;;;0.62;0.60;;;;;;;-0.75;89.54;91714.25;1821402;77;21110;-73
2021/03/16 06:09:24;;;;;;;0.73;0.73;;;;;;;-0.74;89.40;91720.55;1827135;77;21199;-74
2021/03/16 06:12:11;;;;;;;0.60;0.60;;;;;;;-0.72;88.85;91716.73;1844403;77;21127;-73
2021/03/16 06:15:29;;;;;;;1.37;0.42;;;;;;;-0.66;88.55;91728.06;1831662;77;21038;-73
2021/03/16 06:18:28;;;;;;;;;;;;;;;-0.63;87.80;91726.56;1810622;79;21040;-72
2021/03/16 06:21:23;;;;;;;0.62;0.62;;;;;;;-0.59;87.63;91728.70;1773859;80;20218;-72
2021/03/16 06:24:11;;;;;;;0.30;0.30;;;;;;;-0.56;87.05;91734.66;1774039;81;21206;-74
2021/03/16 06:26:58;;;;;;;0.60;0.60;;;;;;;-0.48;86.88;91749.61;1777795;80;21088;-72
2021/03/16 06:29:41;;;;;;;0.65;0.60;;;;;;;-0.44;86.31;91743.73;1823276;78;21064;-73
2021/03/16 06:32:35;;;;;;;1.10;0.65;;;;;;;-0.39;86.13;91742.05;1812978;78;21060;-73
2021/03/16 06:35:25;;;;;;;1.30;0.47;;;;;;;-0.33;85.54;91738.50;1812071;79;21158;-74
2021/03/16 06:38:12;;;;;;;0.37;0.37;;;;;;;-0.34;85.09;91743.07;1812114;79;21803;-74
2021/03/16 06:41:14;;;;;;;0.78;0.68;;;;;;;-0.29;85.48;91741.39;1812139;79;21563;-73
2021/03/16 06:44:04;;;;;;;0.70;0.70;;;;;;;-0.21;85.11;91732.11;1765850;79;21165;-74
2021/03/16 06:46:59;;;;;;;0.82;0.60;;;;;;;-0.16;85.21;91734.44;1805808;78;21147;-72
2021/03/16 06:49:45;;;;;;;0.62;0.62;;;;;;;-0.16;84.13;91742.45;1815313;77;21064;-73
2021/03/16 06:52:34;;;;;;;0.53;0.50;;;;;;;-0.20;83.67;91745.09;1803802;78;21441;-72
2021/03/16 06:55:21;;;;;;;0.40;0.40;;;;;;;-0.21;83.38;91750.23;1795163;80;21163;-73
2021/03/16 06:58:07;;;;;;;0.55;0.55;;;;;;;-0.27;83.71;91751.12;1795233;80;21069;-73
2021/03/16 07:01:13;;;;;;;0.60;0.30;;;;;;;-0.30;83.67;91746.55;1795203;78;21049;-72
2021/03/16 07:04:20;;;;;;;0.80;0.75;;;;;;;-0.28;83.50;91744.26;1795323;78;21702;-73
2021/03/16 07:07:08;;;;;;;0.40;0.40;;;;;;;-0.22;83.83;91738.02;1795148;80;21234;-74
2021/03/16 07:10:00;;;;;;;0.60;0.60;;;;;;;-0.13;83.83;91741.72;1777388;79;21076;-73
2021/03/16 07:12:47;;;;;;;0.75;0.75;;;;;;;-0.05;83.69;91743.31;1810167;79;21080;-71
2021/03/16 07:15:33;;;;;;;0.23;0.23;;;;;;;-0.02;83.21;91755.94;1795599;79;21125;-74
2021/03/16 07:18:21;;;;;;;0.30;0.30;;;;;;;-0.03;81.15;91747.16;1811314;79;21151;-71
2021/03/16 07:20:58;;;;;;;0.30;0.30;;;;;;;-0.09;80.71;91741.94;1793946;80;21562;-71
2021/03/16 07:23:54;;;;;;;0.20;0.20;;;;;;;-0.16;81.26;91749.13;1794804;79;21069;-72
2021/03/16 07:26:41;;;;;;;0.60;0.60;;;;;;;-0.23;81.51;91759.17;1794966;80;21112;-74
2021/03/16 07:29:27;;;;;;;0.17;0.17;;;;;;;-0.26;82.29;91762.03;1794959;80;21183;-73
2021/03/16 07:32:15;;;;;;;0.45;0.45;;;;;;;-0.28;80.59;91754.94;1794128;80;21041;-74
2021/03/16 07:35:04;;;;;;;0.50;0.50;;;;;;;-0.30;81.70;91761.78;1805478;79;21413;-72
2021/03/16 07:37:51;;;;;;;0.60;0.60;;;;;;;-0.30;81.86;91761.78;1803123;79;21163;-73
2021/03/16 07:40:39;;;;;;;1.05;0.40;;;;;;;-0.30;82.41;91763.11;1795092;80;21049;-73
2021/03/16 07:43:37;;;;;;;0.60;0.60;;;;;;;-0.26;82.16;91761.27;1800251;76;21056;-75
2021/03/16 07:46:23;;;;;;;0.68;0.47;;;;;;;-0.26;82.13;91761.27;1806777;79;21555;-73
2021/03/16 07:49:11;;;;;;;1.57;1.00;;;;;;;-0.29;81.26;91750.74;1795157;80;22178;-73
2021/03/16 07:51:58;;;;;;;0.23;0.23;;;;;;;-0.32;82.16;91755.48;1794988;80;21069;-74
2021/03/16 07:54:49;;;;;;;0.70;0.70;;;;;;;-0.34;81.58;91750.30;1795063;78;21155;-74
2021/03/16 07:57:35;;;;;;;0.85;0.68;;;;;;;-0.38;81.94;91756.94;1794328;80;21045;-74
2021/03/16 08:00:11;;;;;;;0.62;0.62;;;;;;;-0.34;82.08;91752.96;1816653;78;21048;-73
2021/03/16 08:03:00;;;;;;;0.60;0.60;;;;;;;-0.34;82.23;91759.09;1785036;79;21616;-74
2021/03/16 08:05:46;;;;;;;0.60;0.53;;;;;;;-0.28;82.24;91762.19;1820322;78;21059;-76
2021/03/16 08:08:41;;;;;;;2.30;0.72;;;;;;;-0.25;81.55;91762.80;1800892;79;21112;-75
2021/03/16 08:11:39;;;;;;;0.60;0.60;;;;;;;-0.26;81.58;91765.27;1814004;77;21056;-74
2021/03/16 08:14:28;;;;;;;1.03;0.53;;;;;;;-0.22;81.66;91766.64;1804939;79;21064;-72
2021/03/16 08:17:30;;;;;;;0.53;0.53;;;;;;;-0.14;81.27;91771.67;1803572;79;22217;-74
2021/03/16 08:20:25;;;;;;;0.60;0.60;;;;;;;-0.05;81.50;91760.11;1806266;78;21174;-72
2021/03/16 08:23:13;;;;;;;0.80;0.70;;;;;;;0.01;81.79;91762.45;1795096;78;21163;-75
2021/03/16 08:26:03;;;;;;;1.32;0.70;;;;;;;0.11;81.87;91767.87;1790189;78;21505;-72
2021/03/16 08:28:51;;;;;;;0.50;0.50;;;;;;;0.17;81.08;91773.09;1796096;79;21174;-76
2021/03/16 08:31:40;;;;;;;0.78;0.78;;;;;;;0.22;80.96;91771.97;1784910;79;21816;-76
2021/03/16 08:34:30;;;;;;;1.00;0.90;;;;;;;0.24;80.90;91779.83;1809587;79;21093;-75
2021/03/16 08:37:27;;;;;;;0.60;0.57;;;;;;;0.27;81.16;91781.58;1804701;79;22183;-75
2021/03/16 08:40:22;;;;;;;0.53;0.53;;;;;;;0.28;80.12;91782.53;1777917;79;21442;-75
2021/03/16 08:43:10;;;;;;;0.57;0.57;;;;;;;0.19;80.28;91783.42;1809629;79;21147;-72
2021/03/16 08:45:57;;;;;;;0.90;0.90;;;;;;;0.16;80.95;91782.25;1809746;79;21158;-76
2021/03/16 08:48:31;;;;;;;1.10;0.90;;;;;;;0.18;80.95;91787.98;1769582;80;21092;-74
2021/03/16 08:51:25;;;;;;;0.70;0.60;;;;;;;0.19;81.32;91789.53;1807831;79;21045;-76
2021/03/16 08:54:14;;;;;;;1.47;1.37;;;;;;;0.19;81.55;91786.09;1809667;79;21123;-75
2021/03/16 08:57:00;;;;;;;1.62;1.42;;;;;;;0.23;82.32;91784.98;1780872;79;21177;-75
2021/03/16 08:59:49;;;;;;;0.72;0.70;;;;;;;0.29;82.58;91788.64;1798501;79;21749;-73
2021/03/16 09:02:38;;;;;;;2.65;2.35;;;;;;;0.35;82.72;91789.84;1809702;79;21099;-76
2021/03/16 09:05:27;;;;;;;1.15;0.82;;;;;;;0.43;82.64;91796.78;1809747;78;21100;-75
2021/03/16 09:08:15;;;;;;;0.72;0.72;;;;;;;0.56;82.17;91795.33;1809565;79;21120;-76
2021/03/16 09:11:02;;;;;;;1.22;1.12;;;;;;;0.66;81.06;91791.20;1809550;79;21562;-73
2021/03/16 09:13:49;;;;;;;1.32;0.72;;;;;;;0.79;81.41;91795.13;1809484;79;21499;-74
2021/03/16 09:16:46;;;;;;;0.90;0.90;;;;;;;0.96;81.46;91806.48;1803542;79;21225;-76
2021/03/16 09:19:34;;;;;;;1.12;1.02;;;;;;;1.06;79.62;91790.30;1779371;79;21662;-76
2021/03/16 09:22:21;;;;;;;0.68;0.68;;;;;;;1.04;80.20;91794.48;1808896;79;21183;-74
2021/03/16 09:25:09;;;;;;;0.53;0.53;;;;;;;1.10;79.69;91809.06;1809178;79;21056;-75
2021/03/16 09:27:42;;;;;;;0.68;0.53;;;;;;;1.18;79.97;91812.73;1802720;79;21363;-73
2021/03/16 09:30:31;;;;;;;0.70;0.50;;;;;;;1.25;79.86;91808.56;1777621;79;21094;-75
2021/03/16 09:33:20;;;;;;;0.80;0.80;;;;;;;1.36;80.10;91815.50;1773763;79;21067;-72
2021/03/16 09:36:08;;;;;;;0.90;0.90;;;;;;;1.43;78.77;91810.17;1801304;78;21056;-73
2021/03/16 09:38:39;;;;;;;0.80;0.80;;;;;;;1.51;78.78;91814.98;1805926;79;21073;-72
2021/03/16 09:41:09;;;;;;;1.02;0.95;;;;;;;1.63;79.75;91815.22;1795248;79;21527;-74
2021/03/16 09:43:39;;;;;;;1.10;1.00;;;;;;;1.81;79.70;91815.28;1778296;79;21153;-74
2021/03/16 09:46:12;;;;;;;0.57;0.57;;;;;;;1.97;79.21;91810.91;1809605;79;21104;-74
2021/03/16 09:48:49;;;;;;;1.15;0.90;;;;;;;1.99;76.66;91811.28;1809589;79;21223;-75
2021/03/16 09:51:20;;;;;;;0.62;0.62;;;;;;;2.01;76.91;91819.73;1781168;79;21497;-75
2021/03/16 09:53:52;;;;;;;0.70;0.70;;;;;;;2.08;76.19;91821.84;1773985;81;22249;-75
2021/03/16 09:56:27;;;;;;;0.80;0.80;;;;;;;2.17;77.17;91828.94;1787637;79;21183;-75
2021/03/16 09:59:00;;;;;;;0.68;0.68;;;;;;;2.27;77.34;91819.97;1809692;77;21496;-74
2021/03/16 10:01:30;;;;;;;0.60;0.60;;;;;;;2.32;75.87;91828.39;1808756;79;21167;-76
2021/03/16 10:04:02;;;;;;;0.50;0.50;;;;;;;2.33;73.27;91831.28;1774016;81;22158;-76
2021/03/16 10:06:45;;;;;;;0.50;0.50;;;;;;;2.10;73.35;91832.95;1804267;78;21359;-77
2021/03/16 10:09:19;;;;;;;0.70;0.70;;;;;;;1.93;73.93;91832.34;1808509;79;21582;-74
2021/03/16 10:11:48;;;;;;;1.37;1.07;;;;;;;1.75;73.37;91829.61;1809275;78;21061;-76
2021/03/16 10:14:29;;;;;;;0.85;0.80;;;;;;;1.58;74.78;91828.96;1798201;79;21055;-75
2021/03/16 10:16:57;;;;;;;0.70;0.70;;;;;;;1.54;75.32;91832.20;1780149;79;21061;-75
2021/03/16 10:19:26;;;;;;;0.70;0.70;;;;;;;1.51;75.71;91835.66;1809694;79;22174;-74
2021/03/16 10:21:54;;;;;;;0.50;0.50;;;;;;;1.43;75.34;91842.32;1809481;79;21155;-74
2021/03/16 10:24:26;;;;;;;1.00;1.00;;;;;;;1.34;74.94;91829.83;1785249;79;21136;-76
2021/03/16 10:26:56;;;;;;;0.70;0.62;;;;;;;1.26;76.78;91836.30;1818191;79;21140;-76
2021/03/16 10:29:24;;;;;;;0.60;0.60;;;;;;;1.18;76.89;91832.81;1803546;79;21600;-76
2021/03/16 10:31:53;;;;;;;1.05;0.95;;;;;;;1.23;77.01;91837.61;1778005;79;22349;-76
2021/03/16 10:34:21;;;;;;;1.75;0.93;;;;;;;1.31;77.10;91830.57;1809592;79;21546;-75
2021/03/16 10:36:50;;;;;;;0.60;0.60;;;;;;;1.40;76.45;91836.37;1809268;79;21037;-75
2021/03/16 10:39:18;;;;;;;0.55;0.55;;;;;;;1.43;76.09;91836.96;1784060;79;21201;-76
2021/03/16 10:41:46;;;;;;;0.35;0.35;;;;;;;1.44;76.20;91839.83;1790127;78;21487;-75
2021/03/16 10:44:14;;;;;;;0.78;0.57;;;;;;;1.46;74.65;91839.44;1801173;79;21651;-75
2021/03/16 10:46:42;;;;;;;0.62;0.62;;;;;;;1.39;74.97;91855.48;1773971;78;21619;-76
2021/03/16 10:49:10;;;;;;;0.70;0.70;;;;;;;1.26;75.81;91847.58;1809410;79;21200;-75
2021/03/16 10:51:38;;;;;;;0.80;0.80;;;;;;;1.15;76.14;91838.91;1809486;78;21574;-74
2021/03/16 10:54:07;;;;;;;0.80;0.80;;;;;;;1.12;75.41;91839.65;1789155;79;21125;-74
2021/03/16 10:56:36;;;;;;;0.70;0.70;;;;;;;1.10;76.36;91831.81;1786639;78;21511;-73
2021/03/16 10:59:06;;;;;;;1.00;0.80;;;;;;;1.08;76.56;91835.42;1804471;79;21191;-74
2021/03/16 11:01:34;;;;;;;1.37;0.70;;;;;;;1.10;76.85;91841.19;1773601;81;21121;-73
2021/03/16 11:04:02;;;;;;;0.72;0.72;;;;;;;1.15;76.44;91844.84;1773513;79;21146;-73
2021/03/16 11:06:30;;;;;;;1.12;0.80;;;;;;;1.19;76.61;91845.63;1773474;79;21181;-72
2021/03/16 11:08:59;;;;;;;1.30;0.90;;;;;;;1.23;76.86;91852.34;1790937;79;48513;-73
2021/03/16 11:11:27;;;;;;;0.42;0.42;;;;;;;1.19;75.86;91852.31;1809323;78;21072;-75
2021/03/16 11:13:55;;;;;;;0.60;0.60;;;;;;;1.15;75.28;91848.28;1809489;77;21049;-74
2021/03/16 11:16:23;;;;;;;1.10;1.10;;;;;;;1.11;75.74;91838.70;1809561;79;21068;-75
2021/03/16 11:18:51;;;;;;;0.60;0.60;;;;;;;1.03;75.43;91837.13;1809454;78;21096;-76
2021/03/16 11:21:20;;;;;;;0.60;0.60;;;;;;;1.00;75.96;91843.98;1787958;79;22476;-75
2021/03/16 11:23:47;;;;;;;1.00;0.90;;;;;;;0.98;76.69;91844.94;1787120;79;21080;-74
2021/03/16 11:26:16;;;;;;;0.60;0.60;;;;;;;0.99;77.39;91838.44;1804319;79;21182;-73
2021/03/16 11:28:44;;;;;;;0.78;0.78;;;;;;;1.06;77.47;91843.08;1773953;81;21561;-73
2021/03/16 11:31:12;;;;;;;1.12;0.90;;;;;;;1.07;76.97;91844.03;1807428;79;21113;-76
2021/03/16 11:34:00;;;;;;;1.22;1.12;;;;;;;1.08;77.40;91845.56;1809626;79;21637;-73
2021/03/16 11:36:46;;;;;;;1.30;0.90;;;;;;;1.09;77.76;91840.97;1809122;79;21075;-75
2021/03/16 11:39:34;;;;;;;0.60;0.50;;;;;;;1.08;78.12;91843.45;1809432;79;21060;-73
2021/03/16 11:42:21;;;;;;;0.50;0.50;;;;;;;1.05;77.68;91837.50;1809443;79;21131;-75
2021/03/16 11:45:09;;;;;;;0.72;0.62;;;;;;;1.02;77.46;91844.39;1808818;78;21159;-74
2021/03/16 11:47:55;;;;;;;0.60;0.60;;;;;;;1.05;78.51;91842.28;1809150;78;21178;-75
2021/03/16 11:50:42;;;;;;;0.57;0.57;;;;;;;1.01;77.92;91844.17;1799261;79;21156;-73
2021/03/16 11:53:29;;;;;;;0.65;0.50;;;;;;;1.00;77.53;91843.98;1779790;79;21465;-76
2021/03/16 11:56:18;;;;;;;0.65;0.60;;;;;;;1.02;77.50;91846.30;1809385;78;21033;-74
2021/03/16 11:59:04;;;;;;;;;;;;;;;;;;;;;
2021/03/16 12:01:51;;;;;;;0.85;0.85;;;;;;;1.09;78.50;91841.76;1809678;79;21177;-74
2021/03/16 12:04:33;;;;;;;2.52;2.02;;;;;;;1.20;79.02;91847.15;1777647;80;21076;-73
2021/03/16 12:07:18;;;;;;;1.22;1.12;;;;;;;1.29;78.74;91842.82;1806481;79;21167;-73
2021/03/16 12:10:07;;;;;;;0.90;0.90;;;;;;;1.35;78.23;91843.41;1809840;79;21469;-75
2021/03/16 12:12:54;;;;;;;0.60;0.60;;;;;;;1.39;77.79;91842.08;1809659;79;21108;-72
2021/03/16 12:15:40;;;;;;;1.10;1.10;;;;;;;1.46;77.87;91843.45;1787744;79;22695;-73
2021/03/16 12:18:27;;;;;;;1.35;1.25;;;;;;;1.52;76.87;91838.52;1773866;81;21101;-75
2021/03/16 12:21:14;;;;;;;1.20;1.10;;;;;;;1.40;77.10;91850.34;1788727;79;21139;-74
2021/03/16 12:24:00;;;;;;;1.67;1.52;;;;;;;1.37;77.59;91847.06;1809479;79;21147;-77
2021/03/16 12:26:46;;;;;;;1.22;1.10;;;;;;;1.39;77.67;91848.78;1809552;78;21155;-74
2021/03/16 12:29:34;;;;;;;1.85;1.67;;;;;;;1.42;77.40;91848.03;1805134;79;21745;-75
2021/03/16 12:32:22;;;;;;;1.27;1.17;;;;;;;1.44;77.90;91847.10;1774768;78;21148;-75
2021/03/16 12:35:10;;;;;;;1.10;0.75;;;;;;;1.44;77.47;91851.12;1809702;79;21045;-76
2021/03/16 12:37:46;;;;;;;1.35;1.02;;;;;;;1.38;77.29;91856.05;1802840;79;21059;-75
2021/03/16 12:40:33;;;;;;;0.70;0.70;;;;;;;1.39;76.40;91852.25;1778960;79;21180;-76
2021/03/16 12:43:21;;;;;;;0.75;0.68;;;;;;;1.29;76.03;91858.31;1802964;79;21596;-74
2021/03/16 12:46:07;;;;;;;1.22;1.00;;;;;;;1.25;76.99;91870.16;1808825;79;21063;-76
2021/03/16 12:49:12;;;;;;;1.20;1.10;;;;;;;1.23;77.45;91865.16;1809314;78;21570;-74